Time;durP1;ratioP1;P1;durP2;ratioP2;P2;SDS_P1;SDS_P2;PMS_P1;PMS_P2;Temp;Humidity;BMP_temperature;BMP_pressure;BME280_temperature;BME280_humidity;BME280_pressure;Samples;Min_cycle;Max_cycle;Signal;HPM_P1;HPM_P2
2023/06/21 00:00:34;;;;;;;9.98;9.07;;;;;;;18.29;100.00;101077.94;5010699;28;20034;-61
2023/06/21 00:02:59;;;;;;;10.18;9.15;;;;;;;18.26;100.00;101071.81;5011176;28;20377;-62
2023/06/21 00:05:25;;;;;;;12.20;11.10;;;;;;;18.22;100.00;101074.41;5009945;28;20091;-61
2023/06/21 00:07:53;;;;;;;11.55;10.45;;;;;;;18.22;100.00;101073.53;5010889;28;20018;-61
2023/06/21 00:10:20;;;;;;;10.65;9.70;;;;;;;18.21;100.00;101077.91;5011089;28;20382;-61
2023/06/21 00:12:45;;;;;;;11.73;10.68;;;;;;;18.22;100.00;101078.78;5011000;28;20022;-61
2023/06/21 00:15:11;;;;;;;12.13;10.13;;;;;;;18.19;100.00;101084.88;5010895;28;20054;-61
2023/06/21 00:17:36;;;;;;;11.15;10.07;;;;;;;18.19;100.00;101084.88;5010594;28;20088;-61
2023/06/21 00:20:03;;;;;;;11.25;10.25;;;;;;;18.17;100.00;101081.38;5010386;28;20022;-61
2023/06/21 00:22:29;;;;;;;11.57;10.48;;;;;;;18.18;100.00;101095.38;5010642;28;20026;-61
2023/06/21 00:24:57;;;;;;;12.10;10.27;;;;;;;18.16;100.00;101089.25;5010906;28;20057;-61
2023/06/21 00:27:22;;;;;;;11.52;10.50;;;;;;;18.17;100.00;101097.09;5011065;28;20100;-62
2023/06/21 00:29:47;;;;;;;11.95;10.85;;;;;;;18.12;100.00;101096.19;5010816;28;20113;-61
2023/06/21 00:32:13;;;;;;;12.27;11.15;;;;;;;18.11;100.00;101084.81;5010086;28;20018;-61
2023/06/21 00:34:38;;;;;;;11.70;10.68;;;;;;;18.09;100.00;101080.44;5010433;28;20080;-61
2023/06/21 00:37:04;;;;;;;12.52;11.18;;;;;;;18.09;100.00;101089.19;5010915;28;20417;-61
2023/06/21 00:39:29;;;;;;;11.93;10.82;;;;;;;18.09;100.00;101088.31;5010652;28;20061;-61
2023/06/21 00:41:55;;;;;;;12.25;11.05;;;;;;;18.09;100.00;101088.31;5010864;28;20411;-62
2023/06/21 00:44:21;;;;;;;11.88;10.70;;;;;;;18.13;100.00;101090.94;5010378;28;20026;-61
2023/06/21 00:46:49;;;;;;;13.02;11.93;;;;;;;18.17;100.00;101096.25;5010160;28;20052;-62
2023/06/21 00:49:14;;;;;;;12.05;10.88;;;;;;;18.20;100.00;101099.78;5010182;28;20022;-62
2023/06/21 00:51:40;;;;;;;11.52;10.60;;;;;;;18.23;100.00;101091.91;5010167;28;20473;-61
2023/06/21 00:54:05;;;;;;;11.50;10.52;;;;;;;18.24;100.00;101096.25;5010324;28;20093;-62
2023/06/21 00:56:33;;;;;;;12.18;11.07;;;;;;;18.23;100.00;101096.25;5010394;28;20061;-61
2023/06/21 00:58:59;;;;;;;13.23;12.02;;;;;;;18.22;100.00;101095.38;5009203;28;20144;-61
2023/06/21 01:01:26;;;;;;;12.27;11.30;;;;;;;18.21;100.00;101103.25;5010326;28;20024;-62
2023/06/21 01:03:52;;;;;;;10.98;9.98;;;;;;;18.17;100.00;101110.22;5010144;28;20466;-61
2023/06/21 01:06:53;;;;;;;12.05;10.95;;;;;;;18.17;100.00;101112.84;5010496;28;20057;-61
2023/06/21 01:09:54;;;;;;;12.60;11.50;;;;;;;18.17;100.00;101102.34;5002385;28;20081;-62
2023/06/21 01:12:36;;;;;;;12.20;11.00;;;;;;;18.21;100.00;101111.09;5010513;28;20029;-61
2023/06/21 01:15:07;;;;;;;11.32;10.27;;;;;;;18.23;100.00;101102.41;5010043;28;20046;-62
2023/06/21 01:17:35;;;;;;;12.35;11.25;;;;;;;18.24;100.00;101114.63;5009929;28;20104;-61
2023/06/21 01:20:05;;;;;;;11.52;10.32;;;;;;;18.24;100.00;101101.50;5005540;28;20040;-61
2023/06/21 01:23:09;;;;;;;14.00;11.18;;;;;;;18.22;100.00;101095.38;5010145;28;20104;-62
2023/06/21 01:26:12;;;;;;;13.32;12.02;;;;;;;18.23;100.00;101107.63;4999738;28;20606;-61
2023/06/21 01:29:00;;;;;;;12.70;11.43;;;;;;;18.23;100.00;101112.88;4997774;28;20030;-62
2023/06/21 01:31:27;;;;;;;12.73;11.45;;;;;;;18.22;100.00;101121.59;4987286;28;20079;-62
2023/06/21 01:33:54;;;;;;;12.73;11.52;;;;;;;18.20;100.00;101120.75;5009783;28;20422;-61
2023/06/21 01:36:21;;;;;;;12.18;11.18;;;;;;;18.22;100.00;101121.59;5009706;28;20021;-62
2023/06/21 01:38:47;;;;;;;13.05;11.75;;;;;;;18.21;100.00;101125.09;5008938;28;20041;-61
2023/06/21 01:41:12;;;;;;;11.88;10.88;;;;;;;18.21;100.00;101126.84;5008542;28;20025;-62
2023/06/21 01:43:38;;;;;;;12.98;11.73;;;;;;;18.20;100.00;101132.97;5008974;28;20388;-61
2023/06/21 01:46:05;;;;;;;13.45;12.15;;;;;;;18.18;100.00;101130.34;5008313;28;20080;-61
2023/06/21 01:48:33;;;;;;;13.70;12.30;;;;;;;18.17;100.00;101128.56;5008489;28;20526;-62
2023/06/21 01:51:02;;;;;;;13.43;12.18;;;;;;;18.14;100.00;101123.31;5007819;28;20022;-61
2023/06/21 01:53:29;;;;;;;13.77;12.38;;;;;;;18.09;100.00;101115.41;5008689;28;20080;-61
2023/06/21 01:55:56;;;;;;;14.60;13.23;;;;;;;18.07;100.00;101121.50;5007560;28;20476;-61
2023/06/21 01:58:22;;;;;;;13.85;12.57;;;;;;;18.04;100.00;101124.13;5008354;28;20026;-62
2023/06/21 02:00:48;;;;;;;13.85;12.63;;;;;;;18.02;100.00;101131.09;5007415;28;20057;-61
2023/06/21 02:03:15;;;;;;;13.23;12.13;;;;;;;18.02;100.00;101138.97;5008073;28;20454;-61
2023/06/21 02:05:42;;;;;;;14.23;13.02;;;;;;;18.00;100.00;101133.72;5007017;28;20037;-61
2023/06/21 02:08:15;;;;;;;13.15;11.95;;;;;;;17.99;100.00;101148.56;5008509;28;20029;-61
2023/06/21 02:10:45;;;;;;;14.02;12.73;;;;;;;17.98;100.00;101138.06;5006593;28;20030;-61
2023/06/21 02:13:12;;;;;;;14.13;12.75;;;;;;;17.97;100.00;101142.41;5008226;28;20076;-61
2023/06/21 02:15:38;;;;;;;14.23;12.88;;;;;;;17.98;100.00;101141.56;5007877;28;20073;-62
2023/06/21 02:18:03;;;;;;;13.23;12.02;;;;;;;17.97;100.00;101139.81;5007036;28;20501;-62
2023/06/21 02:20:28;;;;;;;14.00;12.65;;;;;;;17.96;100.00;101145.91;5007630;28;20549;-61
2023/06/21 02:22:54;;;;;;;13.57;12.38;;;;;;;17.95;100.00;101149.41;5006455;28;20076;-61
2023/06/21 02:25:19;;;;;;;14.77;13.38;;;;;;;17.93;100.00;101156.41;5005931;28;20096;-61
2023/06/21 02:27:44;;;;;;;14.23;12.93;;;;;;;17.94;100.00;101170.38;5006903;28;20034;-61
2023/06/21 02:30:10;;;;;;;15.80;14.23;;;;;;;17.91;100.00;101158.13;5006881;28;20355;-61
2023/06/21 02:32:36;;;;;;;15.15;13.65;;;;;;;17.90;100.00;101166.84;5006993;28;20029;-62
2023/06/21 02:35:01;;;;;;;15.50;14.18;;;;;;;17.87;100.00;101159.84;5007341;28;20478;-62
2023/06/21 02:37:29;;;;;;;15.70;14.30;;;;;;;17.86;100.00;101171.19;5008369;28;20124;-61
2023/06/21 02:39:58;;;;;;;15.30;13.60;;;;;;;17.84;100.00;101182.53;5003337;28;20080;-62
2023/06/21 02:42:29;;;;;;;15.40;13.90;;;;;;;17.81;100.00;101178.13;5008136;28;20445;-61
2023/06/21 02:44:55;;;;;;;14.40;13.10;;;;;;;17.79;100.00;101171.16;5008185;28;20025;-61
2023/06/21 02:47:20;;;;;;;16.00;14.40;;;;;;;17.76;100.00;101180.75;5003138;28;20440;-62
2023/06/21 02:49:46;;;;;;;14.98;13.63;;;;;;;17.76;100.00;101183.34;5008143;28;20029;-61
2023/06/21 02:52:11;;;;;;;15.13;13.82;;;;;;;17.75;100.00;101185.97;5002692;28;20034;-61
2023/06/21 02:54:37;;;;;;;15.50;14.07;;;;;;;17.75;100.00;101186.81;5008360;28;20034;-62
2023/06/21 02:57:02;;;;;;;14.05;12.73;;;;;;;17.77;100.00;101182.47;5006120;28;20041;-62
2023/06/21 02:59:28;;;;;;;15.13;13.73;;;;;;;17.79;100.00;101189.50;5007610;28;20408;-62
2023/06/21 03:01:57;;;;;;;14.93;13.52;;;;;;;17.79;100.00;101194.75;5008059;28;20405;-61
2023/06/21 03:04:22;;;;;;;15.80;13.52;;;;;;;17.76;100.00;101196.47;5008414;28;20537;-61
2023/06/21 03:06:48;;;;;;;14.75;13.43;;;;;;;17.74;100.00;101195.56;5007432;28;20025;-62
2023/06/21 03:09:13;;;;;;;13.43;12.15;;;;;;;17.75;100.00;101214.81;5007634;28;20109;-61
2023/06/21 03:11:38;;;;;;;13.75;12.45;;;;;;;17.75;100.00;101213.03;5006837;28;20022;-62
2023/06/21 03:14:04;;;;;;;15.75;14.25;;;;;;;17.75;100.00;101214.81;5006304;28;20061;-62
2023/06/21 03:16:30;;;;;;;13.65;12.25;;;;;;;17.77;100.00;101223.56;5006226;28;20029;-61
2023/06/21 03:18:55;;;;;;;13.25;11.98;;;;;;;17.75;100.00;101223.50;5005048;28;20041;-62
2023/06/21 03:21:22;;;;;;;12.95;11.90;;;;;;;17.75;100.00;101236.63;5005548;28;20026;-61
2023/06/21 03:23:48;;;;;;;13.35;12.18;;;;;;;17.75;100.00;101234.00;5005796;28;20022;-62
2023/06/21 03:26:13;;;;;;;13.38;11.98;;;;;;;17.75;100.00;101241.88;5005366;28;20034;-62
2023/06/21 03:28:39;;;;;;;13.57;12.20;;;;;;;17.75;100.00;101241.88;5001782;28;20028;-61
2023/06/21 03:31:04;;;;;;;13.55;12.32;;;;;;;17.73;100.00;101238.38;5006869;28;20462;-61
2023/06/21 03:33:29;;;;;;;14.43;13.07;;;;;;;17.72;100.00;101231.38;5007573;28;20124;-61
2023/06/21 03:35:54;;;;;;;14.10;12.90;;;;;;;17.70;100.00;101233.09;5007532;28;20463;-62
2023/06/21 03:38:20;;;;;;;14.18;12.82;;;;;;;17.70;100.00;101238.31;5005745;28;20018;-62
2023/06/21 03:40:45;;;;;;;14.88;13.48;;;;;;;17.70;100.00;101233.09;5007415;28;20104;-61
2023/06/21 03:43:11;;;;;;;14.43;13.02;;;;;;;17.69;100.00;101233.97;5007773;28;20030;-62
2023/06/21 03:45:36;;;;;;;15.18;13.63;;;;;;;17.70;100.00;101229.63;5006784;28;20025;-62
2023/06/21 03:48:05;;;;;;;16.30;14.60;;;;;;;17.69;100.00;101218.25;5007157;28;20022;-62
2023/06/21 03:50:31;;;;;;;15.25;13.75;;;;;;;17.71;100.00;101227.00;5006505;28;20433;-61
2023/06/21 03:52:56;;;;;;;15.07;13.70;;;;;;;17.73;100.00;101227.00;5007097;28;20514;-62
2023/06/21 03:55:22;;;;;;;14.75;13.45;;;;;;;17.76;100.00;101229.66;5006378;28;20026;-62
2023/06/21 03:57:47;;;;;;;15.00;13.57;;;;;;;17.79;100.00;101241.91;5001347;28;20033;-62
2023/06/21 04:00:13;;;;;;;15.65;14.05;;;;;;;17.82;100.00;101240.19;5007105;28;20032;-62
2023/06/21 04:02:39;;;;;;;17.08;13.90;;;;;;;17.83;100.00;101239.31;5006828;28;20076;-62
2023/06/21 04:05:05;;;;;;;16.27;14.77;;;;;;;17.87;100.00;101248.97;5006070;28;20034;-62
2023/06/21 04:07:30;;;;;;;16.50;14.82;;;;;;;17.92;100.00;101256.00;5007626;28;20036;-62
2023/06/21 04:09:55;;;;;;;16.77;15.20;;;;;;;17.97;100.00;101257.78;5006356;28;20030;-62
2023/06/21 04:12:21;;;;;;;16.92;15.43;;;;;;;18.02;100.00;101254.31;5007088;28;20029;-61
2023/06/21 04:14:46;;;;;;;16.40;14.80;;;;;;;18.03;100.00;101256.06;5006664;28;20482;-61
2023/06/21 04:17:11;;;;;;;16.17;14.48;;;;;;;18.05;100.00;101260.47;5006511;28;20080;-61
2023/06/21 04:19:37;;;;;;;16.88;15.38;;;;;;;18.08;100.00;101268.34;5006376;28;20312;-62
2023/06/21 04:22:02;;;;;;;17.67;15.90;;;;;;;18.09;100.00;101266.59;5007965;28;20022;-62
2023/06/21 04:24:27;;;;;;;17.95;16.25;;;;;;;18.11;100.00;101275.38;5007791;28;20034;-62
2023/06/21 04:26:53;;;;;;;17.75;16.05;;;;;;;18.12;100.00;101277.09;5007578;28;20021;-62
2023/06/21 04:29:21;;;;;;;18.50;16.60;;;;;;;18.11;100.00;101276.22;5007461;28;20030;-61
2023/06/21 04:31:46;;;;;;;19.40;17.70;;;;;;;18.11;100.00;101284.09;4994631;28;20026;-62
2023/06/21 04:34:12;;;;;;;18.85;17.02;;;;;;;18.12;100.00;101279.72;5011037;28;20088;-62
2023/06/21 04:36:37;;;;;;;20.10;18.20;;;;;;;18.15;100.00;101287.66;5010850;28;20022;-62
2023/06/21 04:39:03;;;;;;;19.15;17.38;;;;;;;18.15;100.00;101282.41;5010563;28;20030;-62
2023/06/21 04:41:28;;;;;;;20.20;18.40;;;;;;;18.20;100.00;101288.59;5002685;28;20025;-62
2023/06/21 04:43:53;;;;;;;20.33;18.52;;;;;;;18.21;100.00;101292.94;5011441;28;20017;-61
2023/06/21 04:46:21;;;;;;;19.83;17.98;;;;;;;18.24;100.00;101290.34;5010658;28;20409;-62
2023/06/21 04:48:47;;;;;;;20.63;18.73;;;;;;;18.28;100.00;101290.34;5010751;28;20109;-61
2023/06/21 04:51:15;;;;;;;19.90;17.95;;;;;;;18.30;100.00;101288.63;5010727;28;20052;-62
2023/06/21 04:53:48;;;;;;;21.00;19.10;;;;;;;18.31;100.00;101288.63;5010569;28;20053;-62
2023/06/21 04:56:14;;;;;;;19.15;17.42;;;;;;;18.34;100.00;101287.78;5011009;28;20032;-62
2023/06/21 04:58:40;;;;;;;18.95;17.15;;;;;;;18.38;100.00;101283.44;5010726;28;20470;-61
2023/06/21 05:01:08;;;;;;;20.58;18.58;;;;;;;18.39;100.00;101286.06;5010512;28;20533;-62
2023/06/21 05:03:34;;;;;;;19.88;18.08;;;;;;;18.41;100.00;101294.84;5018749;28;20087;-62
2023/06/21 05:06:02;;;;;;;21.30;19.20;;;;;;;18.44;100.00;101292.22;5026528;28;20408;-62
2023/06/21 05:08:27;;;;;;;20.55;18.65;;;;;;;18.44;100.00;101305.34;5020373;28;20041;-61
2023/06/21 05:10:53;;;;;;;21.50;19.05;;;;;;;18.53;100.00;101311.53;5017493;28;20025;-62
2023/06/21 05:13:19;;;;;;;22.25;20.15;;;;;;;18.61;100.00;101315.06;5021962;28;20473;-62
2023/06/21 05:15:44;;;;;;;20.83;18.95;;;;;;;18.68;100.00;101313.34;5010226;28;20045;-61
2023/06/21 05:18:09;;;;;;;22.85;20.60;;;;;;;18.67;100.00;101312.47;5009683;28;20030;-61
2023/06/21 05:20:35;;;;;;;21.33;19.42;;;;;;;18.66;100.00;101310.72;5010373;28;20041;-62
2023/06/21 05:23:00;;;;;;;21.02;19.23;;;;;;;18.64;100.00;101319.44;5008502;28;20034;-62
2023/06/21 05:25:25;;;;;;;22.73;20.55;;;;;;;18.66;100.00;101329.09;5010164;28;20033;-62
2023/06/21 05:27:51;;;;;;;22.75;20.45;;;;;;;18.69;100.00;101333.50;4999503;28;20033;-62
2023/06/21 05:30:16;;;;;;;22.98;20.88;;;;;;;18.75;100.00;101328.28;5009959;28;20092;-61
2023/06/21 05:32:42;;;;;;;22.27;20.35;;;;;;;18.81;100.00;101335.31;5009129;28;20065;-62
2023/06/21 05:35:07;;;;;;;21.83;19.73;;;;;;;18.84;100.00;101333.56;5009992;28;20097;-63
2023/06/21 05:37:33;;;;;;;21.00;19.20;;;;;;;18.87;100.00;101330.06;5009420;28;20040;-62
2023/06/21 05:40:02;;;;;;;22.40;20.33;;;;;;;18.89;100.00;101323.09;5009919;28;20029;-62
2023/06/21 05:42:28;;;;;;;21.42;19.52;;;;;;;18.92;100.00;101330.13;5009060;28;20393;-62
2023/06/21 05:44:53;;;;;;;21.55;19.30;;;;;;;18.95;100.00;101338.00;5009221;28;20087;-61
2023/06/21 05:47:18;;;;;;;21.40;19.50;;;;;;;18.96;100.00;101339.75;5008983;28;20140;-62
2023/06/21 05:49:44;;;;;;;20.45;18.50;;;;;;;18.98;100.00;101339.78;5009519;28;20014;-62
2023/06/21 05:52:09;;;;;;;22.48;20.27;;;;;;;18.98;100.00;101347.66;5008939;28;20022;-62
2023/06/21 05:54:37;;;;;;;22.23;20.23;;;;;;;18.99;100.00;101349.41;5008986;28;20056;-63
2023/06/21 05:57:04;;;;;;;21.73;19.80;;;;;;;18.98;100.00;101358.16;5008169;28;20049;-62
2023/06/21 05:59:29;;;;;;;21.58;19.67;;;;;;;19.02;100.00;101358.16;5009522;28;20037;-62
2023/06/21 06:01:54;;;;;;;21.88;19.98;;;;;;;19.08;100.00;101357.31;5008786;28;20544;-62
2023/06/21 06:04:20;;;;;;;20.98;19.08;;;;;;;19.13;100.00;101368.75;5008763;28;20037;-61
2023/06/21 06:06:46;;;;;;;22.13;20.05;;;;;;;19.20;100.00;101369.66;5008136;28;20022;-62
2023/06/21 06:09:12;;;;;;;20.90;19.00;;;;;;;19.26;100.00;101374.06;5007985;28;20033;-62
2023/06/21 06:11:37;;;;;;;22.85;20.45;;;;;;;19.33;100.00;101370.59;5007528;28;20036;-62
2023/06/21 06:14:03;;;;;;;21.20;18.98;;;;;;;19.46;100.00;101370.63;5006934;28;20080;-62
2023/06/21 06:16:28;;;;;;;21.10;19.13;;;;;;;19.60;100.00;101374.19;5007083;28;20030;-62
2023/06/21 06:18:54;;;;;;;20.25;18.30;;;;;;;19.76;100.00;101368.94;5007015;28;20068;-62
2023/06/21 06:21:22;;;;;;;19.88;18.08;;;;;;;19.90;100.00;101367.22;5007923;28;20440;-62
2023/06/21 06:23:51;;;;;;;18.90;17.30;;;;;;;20.01;100.00;101374.25;5007907;28;20026;-61
2023/06/21 06:26:21;;;;;;;19.02;17.33;;;;;;;20.09;100.00;101387.44;5007000;28;20057;-62
2023/06/21 06:28:47;;;;;;;19.77;17.98;;;;;;;20.15;100.00;101395.31;5004860;28;20240;-63
2023/06/21 06:31:12;;;;;;;20.42;18.63;;;;;;;20.21;100.00;101400.59;5001619;28;20696;-62
2023/06/21 06:33:37;;;;;;;19.77;17.88;;;;;;;20.25;100.00;101404.13;5002912;28;20025;-62
2023/06/21 06:36:03;;;;;;;19.48;17.52;;;;;;;20.33;100.00;101407.63;5004802;28;20026;-63
2023/06/21 06:38:28;;;;;;;19.80;18.00;;;;;;;20.36;100.00;101406.75;5003792;28;20469;-63
2023/06/21 06:40:53;;;;;;;19.65;17.65;;;;;;;20.28;100.00;101417.25;5004648;28;20576;-62
2023/06/21 06:43:18;;;;;;;19.33;17.60;;;;;;;20.35;100.00;101407.63;5014459;28;20163;-62
2023/06/21 06:45:44;;;;;;;18.15;16.40;;;;;;;20.38;100.00;101419.00;5006199;28;20026;-62
2023/06/21 06:48:09;;;;;;;16.73;15.23;;;;;;;20.44;100.00;101425.16;5004118;28;20026;-62
2023/06/21 06:50:36;;;;;;;16.58;15.05;;;;;;;20.52;100.00;101424.28;5008101;28;20036;-61
2023/06/21 06:53:01;;;;;;;15.35;13.90;;;;;;;20.57;100.00;101434.81;5008265;28;20076;-62
2023/06/21 06:55:27;;;;;;;17.90;16.30;;;;;;;20.62;100.00;101440.06;5007088;28;20060;-62
2023/06/21 06:57:52;;;;;;;17.27;15.70;;;;;;;20.68;100.00;101433.94;5008260;28;20077;-62
2023/06/21 07:00:17;;;;;;;14.65;13.27;;;;;;;20.75;100.00;101438.31;5007469;28;20382;-62
2023/06/21 07:02:43;;;;;;;14.48;13.07;;;;;;;20.85;100.00;101440.03;5008244;28;20029;-62
2023/06/21 07:05:08;;;;;;;12.77;11.65;;;;;;;20.98;100.00;101448.84;5007977;28;20018;-62
2023/06/21 07:07:33;;;;;;;11.23;10.13;;;;;;;21.08;100.00;101444.41;5008189;28;20034;-62
2023/06/21 07:09:59;;;;;;;12.10;11.07;;;;;;;21.18;100.00;101445.28;5007609;28;20108;-61
2023/06/21 07:12:25;;;;;;;10.93;9.90;;;;;;;21.23;100.00;101446.13;5007839;28;20374;-62
2023/06/21 07:14:50;;;;;;;11.15;10.10;;;;;;;21.30;100.00;101444.34;5007680;28;20395;-62
2023/06/21 07:17:15;;;;;;;11.20;10.05;;;;;;;21.38;100.00;101446.97;5007420;28;20421;-62
2023/06/21 07:19:41;;;;;;;10.95;9.95;;;;;;;21.48;100.00;101446.06;5006603;28;20033;-62
2023/06/21 07:22:06;;;;;;;10.05;9.05;;;;;;;21.56;100.00;101448.66;5007353;28;20029;-63
2023/06/21 07:24:32;;;;;;;9.52;8.50;;;;;;;21.66;100.00;101448.63;5006618;28;20026;-62
2023/06/21 07:26:57;;;;;;;10.45;9.52;;;;;;;21.79;100.00;101447.66;5007453;28;20033;-62
2023/06/21 07:29:22;;;;;;;10.10;8.63;;;;;;;21.96;100.00;101452.00;5006443;28;20442;-62
2023/06/21 07:31:48;;;;;;;11.43;10.32;;;;;;;22.06;100.00;101445.78;5007441;28;20033;-62
2023/06/21 07:34:13;;;;;;;10.10;9.30;;;;;;;22.13;100.00;101449.25;5006344;28;20026;-62
2023/06/21 07:36:39;;;;;;;10.82;9.82;;;;;;;22.21;100.00;101449.19;5006830;28;20108;-62
2023/06/21 07:39:05;;;;;;;10.48;9.45;;;;;;;22.27;100.00;101446.50;5006766;28;20037;-62
2023/06/21 07:41:30;;;;;;;9.93;9.02;;;;;;;22.39;100.00;101453.47;5006398;28;20030;-63
2023/06/21 07:43:55;;;;;;;10.10;9.07;;;;;;;22.48;100.00;101452.53;5007358;28;20771;-62
2023/06/21 07:46:21;;;;;;;11.60;9.40;;;;;;;22.58;100.00;101460.38;5006946;28;20529;-63
2023/06/21 07:48:46;;;;;;;9.15;8.13;;;;;;;22.67;100.00;101462.94;5006999;28;20139;-62
2023/06/21 07:51:11;;;;;;;10.93;9.82;;;;;;;22.82;100.00;101461.03;5006528;28;20481;-62
2023/06/21 07:53:36;;;;;;;9.15;8.30;;;;;;;23.00;100.00;101465.28;5006157;28;20029;-62
2023/06/21 07:56:02;;;;;;;10.80;9.80;;;;;;;23.21;100.00;101464.16;5005958;28;20117;-62
2023/06/21 07:58:28;;;;;;;10.38;9.48;;;;;;;23.41;100.00;101467.47;5009399;28;20025;-62
2023/06/21 08:00:53;;;;;;;10.88;9.98;;;;;;;23.53;100.00;101456.75;4988835;28;20041;-63
2023/06/21 08:03:19;;;;;;;10.85;9.95;;;;;;;23.65;100.00;101468.97;5007274;28;20014;-63
2023/06/21 08:05:44;;;;;;;11.77;10.77;;;;;;;23.82;100.00;101465.19;5007272;28;20056;-63
2023/06/21 08:08:09;;;;;;;10.48;9.48;;;;;;;23.89;97.97;101474.81;5003842;28;20081;-62
2023/06/21 08:10:34;;;;;;;9.60;8.73;;;;;;;23.82;98.61;101479.31;5010076;28;20052;-63
2023/06/21 08:13:00;;;;;;;10.10;9.20;;;;;;;23.92;99.17;101481.84;5010815;28;20084;-62
2023/06/21 08:15:25;;;;;;;9.68;8.77;;;;;;;23.98;100.00;101487.91;5010453;28;20041;-62
2023/06/21 08:17:51;;;;;;;8.63;7.80;;;;;;;24.06;93.46;101490.47;5010661;28;20062;-63
2023/06/21 08:20:17;;;;;;;8.57;7.78;;;;;;;24.21;94.67;101484.06;5010868;28;20536;-63
2023/06/21 08:22:42;;;;;;;9.48;8.77;;;;;;;24.35;94.21;101490.94;5010751;28;20022;-63
2023/06/21 08:25:07;;;;;;;7.80;7.20;;;;;;;24.48;93.29;101490.75;5010642;28;20093;-63
2023/06/21 08:27:33;;;;;;;8.85;8.15;;;;;;;24.64;88.06;101486.94;5010967;28;20457;-63
2023/06/21 08:29:58;;;;;;;7.55;6.82;;;;;;;24.74;86.64;101486.75;5010282;28;20344;-63
2023/06/21 08:32:24;;;;;;;8.05;7.45;;;;;;;24.80;85.54;101486.66;5010239;28;20052;-62
2023/06/21 08:34:50;;;;;;;6.85;6.25;;;;;;;24.92;85.69;101494.44;5010095;28;20101;-63
2023/06/21 08:37:21;;;;;;;6.97;6.38;;;;;;;25.06;81.59;101487.97;5010535;28;20497;-63
2023/06/21 08:39:47;;;;;;;5.72;5.25;;;;;;;25.24;81.60;101485.91;5009910;28;20101;-62
2023/06/21 08:42:13;;;;;;;5.40;5.00;;;;;;;25.36;76.10;101485.66;5010203;28;20057;-63
2023/06/21 08:44:38;;;;;;;5.65;5.15;;;;;;;25.44;73.20;101489.94;5009244;28;20505;-63
2023/06/21 08:47:06;;;;;;;5.60;5.20;;;;;;;25.58;76.30;101479.03;5010173;28;20033;-63
2023/06/21 08:49:37;;;;;;;6.43;5.82;;;;;;;25.72;74.89;101476.09;5009930;28;20397;-62
2023/06/21 08:52:05;;;;;;;5.35;4.90;;;;;;;25.88;76.27;101484.59;5009750;28;20157;-63
2023/06/21 08:54:34;;;;;;;5.35;4.93;;;;;;;26.04;73.18;101492.22;5010416;28;20037;-63
2023/06/21 08:57:05;;;;;;;6.03;5.45;;;;;;;26.09;74.74;101485.00;5010111;28;20026;-63
2023/06/21 08:59:36;;;;;;;4.43;3.95;;;;;;;26.14;68.17;101486.66;5002794;28;20108;-63
2023/06/21 09:02:11;;;;;;;5.13;4.63;;;;;;;26.19;68.61;101491.00;5006670;28;20029;-62
2023/06/21 09:04:45;;;;;;;6.45;5.85;;;;;;;26.13;68.97;101482.25;5009505;28;20172;-63
2023/06/21 09:07:12;;;;;;;4.88;4.45;;;;;;;26.19;72.46;101489.22;5009546;28;20474;-63
2023/06/21 09:09:39;;;;;;;5.20;4.78;;;;;;;26.30;69.66;101494.25;5009331;28;20445;-63
2023/06/21 09:12:06;;;;;;;5.88;5.13;;;;;;;26.05;70.06;101497.47;5007465;28;20494;-62
2023/06/21 09:14:33;;;;;;;5.43;4.93;;;;;;;25.98;68.52;101496.75;5008894;28;20102;-62
2023/06/21 09:16:59;;;;;;;4.50;4.15;;;;;;;26.05;69.60;101493.97;5009682;28;20144;-63
2023/06/21 09:19:25;;;;;;;5.25;4.60;;;;;;;26.13;72.38;101500.84;5008104;28;20180;-63
2023/06/21 09:21:53;;;;;;;4.85;4.45;;;;;;;26.21;67.62;101502.44;5009568;28;20093;-62
2023/06/21 09:24:18;;;;;;;4.55;4.15;;;;;;;26.34;70.24;101506.53;5008919;28;20026;-63
2023/06/21 09:26:43;;;;;;;3.25;2.95;;;;;;;26.40;64.51;101505.56;5010350;28;20018;-63
2023/06/21 09:29:08;;;;;;;3.78;3.47;;;;;;;26.48;64.27;101511.53;5010026;28;20068;-63
2023/06/21 09:31:34;;;;;;;4.00;3.28;;;;;;;26.46;63.46;101507.19;5009098;28;20393;-63
2023/06/21 09:33:59;;;;;;;4.75;3.00;;;;;;;26.55;63.59;101512.25;4991665;28;20033;-63
2023/06/21 09:36:25;;;;;;;4.90;2.97;;;;;;;26.67;66.05;101512.88;5009716;28;20026;-62
2023/06/21 09:38:50;;;;;;;2.47;2.28;;;;;;;26.85;64.74;101514.19;5010017;28;20134;-63
2023/06/21 09:41:19;;;;;;;3.53;3.15;;;;;;;26.96;61.69;101512.13;5008860;28;20022;-63
2023/06/21 09:43:45;;;;;;;3.70;3.40;;;;;;;27.01;60.54;101522.63;5009455;28;20032;-63
2023/06/21 09:46:12;;;;;;;3.47;3.17;;;;;;;27.09;61.59;101525.13;5009704;28;20381;-63
2023/06/21 09:48:39;;;;;;;3.00;2.80;;;;;;;27.11;60.34;101533.91;4991715;28;20041;-63
2023/06/21 09:51:07;;;;;;;4.18;3.00;;;;;;;27.13;59.59;101523.25;5009239;28;20022;-63
2023/06/21 09:53:32;;;;;;;3.47;2.97;;;;;;;27.23;58.84;101513.22;5008829;28;20506;-63
2023/06/21 09:56:00;;;;;;;3.17;2.63;;;;;;;27.34;60.05;101514.66;5008283;28;20069;-63
2023/06/21 09:58:25;;;;;;;3.30;3.05;;;;;;;27.43;62.62;101515.31;5009029;28;20037;-63
2023/06/21 10:00:51;;;;;;;3.63;3.33;;;;;;;27.53;61.10;101522.13;5008607;28;20018;-63
2023/06/21 10:03:21;;;;;;;5.53;3.92;;;;;;;27.40;60.53;101528.72;5008425;28;20026;-63
2023/06/21 10:05:57;;;;;;;4.32;3.95;;;;;;;27.37;62.30;101529.66;5006898;28;20030;-63
2023/06/21 10:08:27;;;;;;;5.50;5.00;;;;;;;27.44;63.26;101530.34;5006429;28;20157;-63
2023/06/21 10:10:53;;;;;;;4.65;3.53;;;;;;;27.50;61.88;101532.84;5008092;28;20034;-63
2023/06/21 10:13:26;;;;;;;2.92;2.72;;;;;;;27.55;61.11;101544.22;5006979;28;20080;-63
2023/06/21 10:15:52;;;;;;;2.95;2.70;;;;;;;27.57;61.30;101542.41;5008099;28;20173;-63
2023/06/21 10:18:17;;;;;;;3.38;3.08;;;;;;;27.58;60.27;101544.13;5008650;28;20037;-63
2023/06/21 10:20:44;;;;;;;4.07;2.90;;;;;;;27.60;60.06;101540.53;5008567;28;20105;-63
2023/06/21 10:23:13;;;;;;;3.50;3.20;;;;;;;27.71;57.29;101549.13;5007879;28;20022;-63
2023/06/21 10:25:42;;;;;;;3.15;2.03;;;;;;;27.69;55.64;101551.81;5008343;28;20123;-63
2023/06/21 10:28:10;;;;;;;2.92;2.67;;;;;;;27.52;55.31;101562.94;5007855;28;20168;-63
2023/06/21 10:30:39;;;;;;;2.20;2.00;;;;;;;27.36;55.55;101549.22;5007668;28;20022;-62
2023/06/21 10:33:04;;;;;;;3.00;2.70;;;;;;;27.30;59.68;101557.34;5008236;28;20018;-63
2023/06/21 10:35:34;;;;;;;3.20;2.25;;;;;;;27.42;59.60;101553.47;5008495;28;20033;-63
2023/06/21 10:38:04;;;;;;;3.53;2.88;;;;;;;27.33;57.03;101565.22;5008787;28;20609;-63
2023/06/21 10:40:30;;;;;;;4.10;3.45;;;;;;;27.39;58.52;101564.19;5007926;28;20029;-63
2023/06/21 10:42:58;;;;;;;6.00;4.38;;;;;;;27.37;60.22;101560.69;5008386;28;20484;-63
2023/06/21 10:45:24;;;;;;;3.58;3.28;;;;;;;27.50;61.76;101564.78;5008925;28;20072;-63
2023/06/21 10:47:52;;;;;;;4.95;4.25;;;;;;;27.47;59.00;101562.19;5007987;28;20522;-63
2023/06/21 10:50:19;;;;;;;4.63;4.05;;;;;;;27.54;62.09;101555.78;5007841;28;20060;-63
2023/06/21 10:52:47;;;;;;;4.22;3.92;;;;;;;27.53;60.77;101572.66;5007944;28;20037;-63
2023/06/21 10:55:13;;;;;;;4.00;3.53;;;;;;;27.48;61.01;101579.91;5008097;28;20064;-63
2023/06/21 10:57:39;;;;;;;3.85;3.55;;;;;;;27.47;63.30;101572.81;5007394;28;20061;-63
2023/06/21 11:00:07;;;;;;;3.28;2.88;;;;;;;27.49;61.41;101567.50;5007651;28;20080;-63
2023/06/21 11:02:33;;;;;;;5.22;3.15;;;;;;;27.41;58.79;101573.91;5007828;28;20124;-63
2023/06/21 11:05:24;;;;;;;3.42;2.50;;;;;;;27.56;60.76;101561.94;5008278;28;20444;-63
2023/06/21 11:07:58;;;;;;;4.00;3.60;;;;;;;27.60;59.73;101570.69;4998071;28;20029;-64